sensor_id;sensor_type;location;lat;lon;timestamp;temperature;humidity
78647;DHT22;67961;43.460;3.762;2023-08-06T00:00:17;21.10;57.40
78647;DHT22;67961;43.460;3.762;2023-08-06T00:02:43;21.00;57.60
78647;DHT22;67961;43.460;3.762;2023-08-06T00:05:08;21.10;57.70
78647;DHT22;67961;43.460;3.762;2023-08-06T00:07:34;21.00;57.90
78647;DHT22;67961;43.460;3.762;2023-08-06T00:09:59;21.00;58.10
78647;DHT22;67961;43.460;3.762;2023-08-06T00:12:25;21.00;58.40
78647;DHT22;67961;43.460;3.762;2023-08-06T00:14:51;20.90;58.80
78647;DHT22;67961;43.460;3.762;2023-08-06T00:17:18;20.90;59.10
78647;DHT22;67961;43.460;3.762;2023-08-06T00:19:43;20.90;59.30
78647;DHT22;67961;43.460;3.762;2023-08-06T00:22:09;20.90;59.70
78647;DHT22;67961;43.460;3.762;2023-08-06T00:24:35;20.80;60.00
78647;DHT22;67961;43.460;3.762;2023-08-06T00:27:01;20.80;60.40
78647;DHT22;67961;43.460;3.762;2023-08-06T00:29:27;20.80;60.50
78647;DHT22;67961;43.460;3.762;2023-08-06T00:31:52;20.70;60.80
78647;DHT22;67961;43.460;3.762;2023-08-06T00:34:18;20.80;60.80
78647;DHT22;67961;43.460;3.762;2023-08-06T00:36:43;20.70;60.80
78647;DHT22;67961;43.460;3.762;2023-08-06T00:39:09;20.70;61.10
78647;DHT22;67961;43.460;3.762;2023-08-06T00:41:35;20.60;61.30
78647;DHT22;67961;43.460;3.762;2023-08-06T00:44:00;20.60;61.30
78647;DHT22;67961;43.460;3.762;2023-08-06T00:46:26;20.60;61.40
78647;DHT22;67961;43.460;3.762;2023-08-06T00:48:52;20.60;61.30
78647;DHT22;67961;43.460;3.762;2023-08-06T00:51:19;20.60;61.40
78647;DHT22;67961;43.460;3.762;2023-08-06T00:53:44;20.50;61.60
78647;DHT22;67961;43.460;3.762;2023-08-06T00:56:10;20.50;61.50
78647;DHT22;67961;43.460;3.762;2023-08-06T00:58:38;20.50;61.50
78647;DHT22;67961;43.460;3.762;2023-08-06T01:01:03;20.50;61.60
78647;DHT22;67961;43.460;3.762;2023-08-06T01:03:29;20.50;61.80
78647;DHT22;67961;43.460;3.762;2023-08-06T01:05:55;20.50;61.50
78647;DHT22;67961;43.460;3.762;2023-08-06T01:13:47;20.50;61.50
78647;DHT22;67961;43.460;3.762;2023-08-06T01:16:18;20.50;61.30
78647;DHT22;67961;43.460;3.762;2023-08-06T01:18:47;20.50;60.90
78647;DHT22;67961;43.460;3.762;2023-08-06T01:21:15;20.50;60.30
78647;DHT22;67961;43.460;3.762;2023-08-06T01:23:44;20.50;59.20
78647;DHT22;67961;43.460;3.762;2023-08-06T01:29:17;20.50;57.70
78647;DHT22;67961;43.460;3.762;2023-08-06T01:31:44;20.50;56.90
78647;DHT22;67961;43.460;3.762;2023-08-06T01:34:32;20.60;56.80
78647;DHT22;67961;43.460;3.762;2023-08-06T01:37:00;20.60;56.60
78647;DHT22;67961;43.460;3.762;2023-08-06T01:39:27;20.60;56.80
78647;DHT22;67961;43.460;3.762;2023-08-06T01:41:52;20.60;56.80
78647;DHT22;67961;43.460;3.762;2023-08-06T01:44:18;20.60;56.90
78647;DHT22;67961;43.460;3.762;2023-08-06T01:46:44;20.50;57.10
78647;DHT22;67961;43.460;3.762;2023-08-06T01:49:10;20.50;57.20
78647;DHT22;67961;43.460;3.762;2023-08-06T01:51:35;20.50;57.20
78647;DHT22;67961;43.460;3.762;2023-08-06T01:54:01;20.50;57.20
78647;DHT22;67961;43.460;3.762;2023-08-06T01:56:27;20.50;57.30
78647;DHT22;67961;43.460;3.762;2023-08-06T01:58:53;20.50;57.30
78647;DHT22;67961;43.460;3.762;2023-08-06T02:01:18;20.50;57.30
78647;DHT22;67961;43.460;3.762;2023-08-06T02:03:44;20.50;57.20
78647;DHT22;67961;43.460;3.762;2023-08-06T02:06:09;20.40;57.20
78647;DHT22;67961;43.460;3.762;2023-08-06T02:08:35;20.40;57.20
78647;DHT22;67961;43.460;3.762;2023-08-06T02:11:01;20.40;57.20
78647;DHT22;67961;43.460;3.762;2023-08-06T02:13:28;20.40;57.20
78647;DHT22;67961;43.460;3.762;2023-08-06T02:15:53;20.30;57.10
78647;DHT22;67961;43.460;3.762;2023-08-06T02:18:19;20.30;57.00
78647;DHT22;67961;43.460;3.762;2023-08-06T02:20:58;20.30;56.90
78647;DHT22;67961;43.460;3.762;2023-08-06T02:23:24;20.30;56.70
78647;DHT22;67961;43.460;3.762;2023-08-06T02:25:57;20.30;56.70
78647;DHT22;67961;43.460;3.762;2023-08-06T02:28:23;20.30;56.60
78647;DHT22;67961;43.460;3.762;2023-08-06T02:30:52;20.30;56.40
78647;DHT22;67961;43.460;3.762;2023-08-06T02:33:17;20.30;56.30
78647;DHT22;67961;43.460;3.762;2023-08-06T02:35:43;20.30;56.10
78647;DHT22;67961;43.460;3.762;2023-08-06T02:38:09;20.20;56.00
78647;DHT22;67961;43.460;3.762;2023-08-06T02:40:34;20.10;55.80
78647;DHT22;67961;43.460;3.762;2023-08-06T02:43:00;20.10;55.80
78647;DHT22;67961;43.460;3.762;2023-08-06T02:45:25;20.10;55.50
78647;DHT22;67961;43.460;3.762;2023-08-06T02:47:51;20.10;55.50
78647;DHT22;67961;43.460;3.762;2023-08-06T02:50:17;20.00;55.20
78647;DHT22;67961;43.460;3.762;2023-08-06T02:52:42;20.00;55.00
78647;DHT22;67961;43.460;3.762;2023-08-06T02:55:11;20.00;54.70
78647;DHT22;67961;43.460;3.762;2023-08-06T02:57:36;20.00;54.40
78647;DHT22;67961;43.460;3.762;2023-08-06T03:00:02;20.00;54.30
78647;DHT22;67961;43.460;3.762;2023-08-06T03:02:28;20.00;54.20
78647;DHT22;67961;43.460;3.762;2023-08-06T03:04:54;19.90;54.20
78647;DHT22;67961;43.460;3.762;2023-08-06T03:07:19;19.90;54.20
78647;DHT22;67961;43.460;3.762;2023-08-06T03:09:45;19.90;53.90
78647;DHT22;67961;43.460;3.762;2023-08-06T03:12:10;19.90;53.80
78647;DHT22;67961;43.460;3.762;2023-08-06T03:14:36;19.80;53.50
78647;DHT22;67961;43.460;3.762;2023-08-06T03:17:02;19.70;53.50
78647;DHT22;67961;43.460;3.762;2023-08-06T03:19:27;19.70;53.40
78647;DHT22;67961;43.460;3.762;2023-08-06T03:21:53;19.70;53.40
78647;DHT22;67961;43.460;3.762;2023-08-06T03:24:19;19.70;53.30
78647;DHT22;67961;43.460;3.762;2023-08-06T03:26:45;19.60;53.20
78647;DHT22;67961;43.460;3.762;2023-08-06T03:29:11;19.60;53.20
78647;DHT22;67961;43.460;3.762;2023-08-06T03:31:36;19.50;53.30
78647;DHT22;67961;43.460;3.762;2023-08-06T03:34:02;19.50;53.20
78647;DHT22;67961;43.460;3.762;2023-08-06T03:36:27;19.40;52.90
78647;DHT22;67961;43.460;3.762;2023-08-06T03:38:53;19.40;52.70
78647;DHT22;67961;43.460;3.762;2023-08-06T03:41:19;19.30;52.70
78647;DHT22;67961;43.460;3.762;2023-08-06T03:43:44;19.30;52.60
78647;DHT22;67961;43.460;3.762;2023-08-06T03:46:10;19.30;52.40
78647;DHT22;67961;43.460;3.762;2023-08-06T03:48:35;19.30;52.20
78647;DHT22;67961;43.460;3.762;2023-08-06T03:51:01;19.30;52.20
78647;DHT22;67961;43.460;3.762;2023-08-06T03:53:27;19.20;52.00
78647;DHT22;67961;43.460;3.762;2023-08-06T03:55:53;19.10;52.00
78647;DHT22;67961;43.460;3.762;2023-08-06T03:58:18;19.10;51.90
78647;DHT22;67961;43.460;3.762;2023-08-06T04:00:44;19.00;52.20
78647;DHT22;67961;43.460;3.762;2023-08-06T04:03:10;19.00;52.30
78647;DHT22;67961;43.460;3.762;2023-08-06T04:05:35;19.00;52.50
78647;DHT22;67961;43.460;3.762;2023-08-06T04:08:01;18.90;52.60
78647;DHT22;67961;43.460;3.762;2023-08-06T04:10:26;18.90;52.60
78647;DHT22;67961;43.460;3.762;2023-08-06T04:12:52;18.90;52.70
78647;DHT22;67961;43.460;3.762;2023-08-06T04:15:18;18.90;52.70
78647;DHT22;67961;43.460;3.762;2023-08-06T04:17:43;18.80;52.90
78647;DHT22;67961;43.460;3.762;2023-08-06T04:20:09;18.80;52.90
78647;DHT22;67961;43.460;3.762;2023-08-06T04:22:35;18.80;52.90
78647;DHT22;67961;43.460;3.762;2023-08-06T04:25:00;18.80;53.00
78647;DHT22;67961;43.460;3.762;2023-08-06T04:27:26;18.80;53.10
78647;DHT22;67961;43.460;3.762;2023-08-06T04:29:52;18.80;53.30
78647;DHT22;67961;43.460;3.762;2023-08-06T04:32:17;18.80;53.40
78647;DHT22;67961;43.460;3.762;2023-08-06T04:34:44;18.70;53.50
78647;DHT22;67961;43.460;3.762;2023-08-06T04:37:10;18.70;53.50
78647;DHT22;67961;43.460;3.762;2023-08-06T04:39:36;18.70;53.60
78647;DHT22;67961;43.460;3.762;2023-08-06T04:42:01;18.70;53.50
78647;DHT22;67961;43.460;3.762;2023-08-06T04:44:27;18.70;53.50
78647;DHT22;67961;43.460;3.762;2023-08-06T04:46:53;18.80;53.50
78647;DHT22;67961;43.460;3.762;2023-08-06T04:49:20;18.80;53.50
78647;DHT22;67961;43.460;3.762;2023-08-06T04:51:46;18.80;53.50
78647;DHT22;67961;43.460;3.762;2023-08-06T04:54:12;18.70;53.60
78647;DHT22;67961;43.460;3.762;2023-08-06T04:56:37;18.80;53.60
78647;DHT22;67961;43.460;3.762;2023-08-06T04:59:03;18.80;53.60
78647;DHT22;67961;43.460;3.762;2023-08-06T05:01:29;18.70;53.80
78647;DHT22;67961;43.460;3.762;2023-08-06T05:03:54;18.80;53.70
78647;DHT22;67961;43.460;3.762;2023-08-06T05:06:20;18.80;53.70
78647;DHT22;67961;43.460;3.762;2023-08-06T05:08:45;18.90;53.60
78647;DHT22;67961;43.460;3.762;2023-08-06T05:11:11;18.90;53.70
78647;DHT22;67961;43.460;3.762;2023-08-06T05:13:37;18.80;53.70
78647;DHT22;67961;43.460;3.762;2023-08-06T05:16:02;18.90;53.80
78647;DHT22;67961;43.460;3.762;2023-08-06T05:18:28;19.00;53.70
78647;DHT22;67961;43.460;3.762;2023-08-06T05:20:55;19.00;53.70
78647;DHT22;67961;43.460;3.762;2023-08-06T05:23:21;19.20;53.40
78647;DHT22;67961;43.460;3.762;2023-08-06T05:25:47;19.20;53.30
78647;DHT22;67961;43.460;3.762;2023-08-06T05:28:12;19.20;52.90
78647;DHT22;67961;43.460;3.762;2023-08-06T05:30:41;19.20;52.80
78647;DHT22;67961;43.460;3.762;2023-08-06T05:33:07;19.20;52.80
78647;DHT22;67961;43.460;3.762;2023-08-06T05:35:33;19.30;52.70
78647;DHT22;67961;43.460;3.762;2023-08-06T05:37:58;19.30;52.80
78647;DHT22;67961;43.460;3.762;2023-08-06T05:40:24;19.40;52.80
78647;DHT22;67961;43.460;3.762;2023-08-06T05:42:54;19.40;52.50
78647;DHT22;67961;43.460;3.762;2023-08-06T05:45:19;19.50;52.50
78647;DHT22;67961;43.460;3.762;2023-08-06T05:47:45;19.50;52.30
78647;DHT22;67961;43.460;3.762;2023-08-06T05:50:13;19.50;52.10
78647;DHT22;67961;43.460;3.762;2023-08-06T05:52:38;19.50;52.20
78647;DHT22;67961;43.460;3.762;2023-08-06T05:55:04;19.60;52.00
78647;DHT22;67961;43.460;3.762;2023-08-06T05:57:30;19.60;51.80
78647;DHT22;67961;43.460;3.762;2023-08-06T05:59:55;19.60;51.90
78647;DHT22;67961;43.460;3.762;2023-08-06T06:02:21;19.60;51.90
78647;DHT22;67961;43.460;3.762;2023-08-06T06:04:47;19.70;51.80
78647;DHT22;67961;43.460;3.762;2023-08-06T06:07:12;19.70;51.70
78647;DHT22;67961;43.460;3.762;2023-08-06T06:09:39;19.70;51.60
78647;DHT22;67961;43.460;3.762;2023-08-06T06:12:06;19.70;51.60
78647;DHT22;67961;43.460;3.762;2023-08-06T06:14:31;19.80;51.50
78647;DHT22;67961;43.460;3.762;2023-08-06T06:16:57;19.90;51.20
78647;DHT22;67961;43.460;3.762;2023-08-06T06:19:23;19.90;51.10
78647;DHT22;67961;43.460;3.762;2023-08-06T06:21:48;20.00;51.00
78647;DHT22;67961;43.460;3.762;2023-08-06T06:24:14;20.10;51.00
78647;DHT22;67961;43.460;3.762;2023-08-06T06:26:39;20.40;51.20
78647;DHT22;67961;43.460;3.762;2023-08-06T06:29:05;20.80;50.80
78647;DHT22;67961;43.460;3.762;2023-08-06T06:31:31;21.10;49.80
78647;DHT22;67961;43.460;3.762;2023-08-06T06:33:56;21.00;49.40
78647;DHT22;67961;43.460;3.762;2023-08-06T06:36:22;20.90;49.70
78647;DHT22;67961;43.460;3.762;2023-08-06T06:38:49;20.90;49.70
78647;DHT22;67961;43.460;3.762;2023-08-06T06:41:14;20.90;49.70
78647;DHT22;67961;43.460;3.762;2023-08-06T06:43:40;20.90;49.10
78647;DHT22;67961;43.460;3.762;2023-08-06T06:46:06;20.90;48.60
78647;DHT22;67961;43.460;3.762;2023-08-06T06:48:32;20.90;48.80
78647;DHT22;67961;43.460;3.762;2023-08-06T06:50:58;20.80;49.40
78647;DHT22;67961;43.460;3.762;2023-08-06T06:53:24;20.70;49.20
78647;DHT22;67961;43.460;3.762;2023-08-06T06:56:03;20.70;48.50
78647;DHT22;67961;43.460;3.762;2023-08-06T06:58:30;20.70;48.60
78647;DHT22;67961;43.460;3.762;2023-08-06T07:00:56;20.80;48.00
78647;DHT22;67961;43.460;3.762;2023-08-06T07:03:22;20.80;48.20
78647;DHT22;67961;43.460;3.762;2023-08-06T07:05:47;20.70;48.40
78647;DHT22;67961;43.460;3.762;2023-08-06T07:08:13;20.90;48.20
78647;DHT22;67961;43.460;3.762;2023-08-06T07:10:41;21.00;48.00
78647;DHT22;67961;43.460;3.762;2023-08-06T07:13:07;21.10;47.80
78647;DHT22;67961;43.460;3.762;2023-08-06T07:15:33;21.10;47.90
78647;DHT22;67961;43.460;3.762;2023-08-06T07:17:58;21.10;47.90
78647;DHT22;67961;43.460;3.762;2023-08-06T07:20:24;21.10;47.40
78647;DHT22;67961;43.460;3.762;2023-08-06T07:22:49;21.20;47.40
78647;DHT22;67961;43.460;3.762;2023-08-06T07:25:16;21.30;47.50
78647;DHT22;67961;43.460;3.762;2023-08-06T07:27:42;21.40;47.10
78647;DHT22;67961;43.460;3.762;2023-08-06T07:30:08;21.40;47.30
78647;DHT22;67961;43.460;3.762;2023-08-06T07:32:33;21.60;46.60
78647;DHT22;67961;43.460;3.762;2023-08-06T07:34:59;21.70;46.50
78647;DHT22;67961;43.460;3.762;2023-08-06T07:37:26;21.70;46.20
78647;DHT22;67961;43.460;3.762;2023-08-06T07:39:56;21.80;45.90
78647;DHT22;67961;43.460;3.762;2023-08-06T07:42:22;21.90;46.00
78647;DHT22;67961;43.460;3.762;2023-08-06T07:44:58;21.90;45.80
78647;DHT22;67961;43.460;3.762;2023-08-06T07:47:24;22.00;45.50
78647;DHT22;67961;43.460;3.762;2023-08-06T07:49:49;22.10;45.30
78647;DHT22;67961;43.460;3.762;2023-08-06T07:52:15;22.10;45.30
78647;DHT22;67961;43.460;3.762;2023-08-06T07:54:41;22.30;45.40
78647;DHT22;67961;43.460;3.762;2023-08-06T07:57:07;22.50;44.90
78647;DHT22;67961;43.460;3.762;2023-08-06T07:59:33;22.50;44.90
78647;DHT22;67961;43.460;3.762;2023-08-06T08:01:58;22.60;45.10
78647;DHT22;67961;43.460;3.762;2023-08-06T08:04:24;22.90;44.40
78647;DHT22;67961;43.460;3.762;2023-08-06T08:06:50;22.90;45.00
78647;DHT22;67961;43.460;3.762;2023-08-06T08:09:16;23.10;44.50
78647;DHT22;67961;43.460;3.762;2023-08-06T08:11:42;23.00;44.70
78647;DHT22;67961;43.460;3.762;2023-08-06T08:14:07;23.00;43.70
78647;DHT22;67961;43.460;3.762;2023-08-06T08:16:33;23.20;43.60
78647;DHT22;67961;43.460;3.762;2023-08-06T08:18:59;23.20;44.00
78647;DHT22;67961;43.460;3.762;2023-08-06T08:21:25;23.60;43.00
78647;DHT22;67961;43.460;3.762;2023-08-06T08:23:51;24.10;42.80
78647;DHT22;67961;43.460;3.762;2023-08-06T08:26:17;24.20;42.30
78647;DHT22;67961;43.460;3.762;2023-08-06T08:28:42;24.20;42.70
78647;DHT22;67961;43.460;3.762;2023-08-06T08:31:09;24.50;42.00
78647;DHT22;67961;43.460;3.762;2023-08-06T08:33:35;24.70;41.20
78647;DHT22;67961;43.460;3.762;2023-08-06T08:36:00;25.00;41.60
78647;DHT22;67961;43.460;3.762;2023-08-06T08:38:26;25.30;41.20
78647;DHT22;67961;43.460;3.762;2023-08-06T08:40:53;25.30;40.40
78647;DHT22;67961;43.460;3.762;2023-08-06T08:43:22;25.40;40.60
78647;DHT22;67961;43.460;3.762;2023-08-06T08:45:50;25.60;40.10
78647;DHT22;67961;43.460;3.762;2023-08-06T08:48:17;26.00;40.30
78647;DHT22;67961;43.460;3.762;2023-08-06T08:50:47;26.20;39.80
78647;DHT22;67961;43.460;3.762;2023-08-06T08:53:16;26.50;39.40
78647;DHT22;67961;43.460;3.762;2023-08-06T08:55:43;26.60;39.60
78647;DHT22;67961;43.460;3.762;2023-08-06T08:58:10;26.60;40.30
78647;DHT22;67961;43.460;3.762;2023-08-06T09:00:36;26.60;39.10
78647;DHT22;67961;43.460;3.762;2023-08-06T09:03:02;26.70;38.90
78647;DHT22;67961;43.460;3.762;2023-08-06T09:05:31;26.90;38.20
78647;DHT22;67961;43.460;3.762;2023-08-06T09:08:03;26.70;38.80
78647;DHT22;67961;43.460;3.762;2023-08-06T09:10:29;26.60;38.80
78647;DHT22;67961;43.460;3.762;2023-08-06T09:12:57;26.80;38.80
78647;DHT22;67961;43.460;3.762;2023-08-06T09:15:26;26.80;39.20
78647;DHT22;67961;43.460;3.762;2023-08-06T09:17:53;26.70;39.00
78647;DHT22;67961;43.460;3.762;2023-08-06T09:20:19;27.00;38.80
78647;DHT22;67961;43.460;3.762;2023-08-06T09:22:44;27.40;38.40
78647;DHT22;67961;43.460;3.762;2023-08-06T09:25:11;27.40;37.50
78647;DHT22;67961;43.460;3.762;2023-08-06T09:27:38;27.30;37.60
78647;DHT22;67961;43.460;3.762;2023-08-06T09:30:08;27.30;38.00
78647;DHT22;67961;43.460;3.762;2023-08-06T09:32:45;27.60;37.20
78647;DHT22;67961;43.460;3.762;2023-08-06T09:35:17;27.50;37.10
78647;DHT22;67961;43.460;3.762;2023-08-06T09:37:44;27.50;37.10
78647;DHT22;67961;43.460;3.762;2023-08-06T09:40:39;27.40;37.50
78647;DHT22;67961;43.460;3.762;2023-08-06T09:43:06;27.50;37.30
78647;DHT22;67961;43.460;3.762;2023-08-06T09:45:36;27.60;37.10
78647;DHT22;67961;43.460;3.762;2023-08-06T09:48:06;27.70;37.30
78647;DHT22;67961;43.460;3.762;2023-08-06T09:50:34;27.70;36.70
78647;DHT22;67961;43.460;3.762;2023-08-06T09:53:03;27.60;37.10
78647;DHT22;67961;43.460;3.762;2023-08-06T09:55:28;27.80;36.50
78647;DHT22;67961;43.460;3.762;2023-08-06T09:57:54;27.70;36.40
78647;DHT22;67961;43.460;3.762;2023-08-06T10:00:21;27.60;36.70
78647;DHT22;67961;43.460;3.762;2023-08-06T10:02:47;27.50;37.20
78647;DHT22;67961;43.460;3.762;2023-08-06T10:05:14;27.60;36.90
78647;DHT22;67961;43.460;3.762;2023-08-06T10:07:43;27.70;36.90
78647;DHT22;67961;43.460;3.762;2023-08-06T10:10:09;27.90;37.30
78647;DHT22;67961;43.460;3.762;2023-08-06T10:12:48;27.90;36.80
78647;DHT22;67961;43.460;3.762;2023-08-06T10:15:17;27.90;36.80
78647;DHT22;67961;43.460;3.762;2023-08-06T10:17:47;27.80;37.00
78647;DHT22;67961;43.460;3.762;2023-08-06T10:20:13;28.10;36.50
78647;DHT22;67961;43.460;3.762;2023-08-06T10:22:43;28.30;36.00
78647;DHT22;67961;43.460;3.762;2023-08-06T10:25:16;28.30;36.10
78647;DHT22;67961;43.460;3.762;2023-08-06T10:28:20;28.40;36.20
78647;DHT22;67961;43.460;3.762;2023-08-06T10:30:46;28.10;36.10
78647;DHT22;67961;43.460;3.762;2023-08-06T10:33:12;28.10;36.10
78647;DHT22;67961;43.460;3.762;2023-08-06T10:35:43;28.10;36.50
78647;DHT22;67961;43.460;3.762;2023-08-06T10:38:12;28.10;36.70
78647;DHT22;67961;43.460;3.762;2023-08-06T10:40:40;28.30;36.00
78647;DHT22;67961;43.460;3.762;2023-08-06T10:43:07;27.90;36.30
78647;DHT22;67961;43.460;3.762;2023-08-06T10:45:37;27.90;36.30
78647;DHT22;67961;43.460;3.762;2023-08-06T10:48:03;27.90;37.20
78647;DHT22;67961;43.460;3.762;2023-08-06T10:50:30;28.00;36.30
78647;DHT22;67961;43.460;3.762;2023-08-06T10:52:57;28.20;36.40
78647;DHT22;67961;43.460;3.762;2023-08-06T10:55:27;28.10;36.00
78647;DHT22;67961;43.460;3.762;2023-08-06T10:57:54;28.10;35.90
78647;DHT22;67961;43.460;3.762;2023-08-06T11:00:21;28.10;36.20
78647;DHT22;67961;43.460;3.762;2023-08-06T11:02:48;28.10;36.40
78647;DHT22;67961;43.460;3.762;2023-08-06T11:05:14;28.20;36.00
78647;DHT22;67961;43.460;3.762;2023-08-06T11:07:40;28.20;36.00
78647;DHT22;67961;43.460;3.762;2023-08-06T11:10:08;28.30;36.20
78647;DHT22;67961;43.460;3.762;2023-08-06T11:12:34;28.10;36.00
78647;DHT22;67961;43.460;3.762;2023-08-06T11:15:00;28.10;36.30
78647;DHT22;67961;43.460;3.762;2023-08-06T11:17:28;28.00;35.90
78647;DHT22;67961;43.460;3.762;2023-08-06T11:19:54;28.00;36.10
78647;DHT22;67961;43.460;3.762;2023-08-06T11:22:21;28.10;36.20
78647;DHT22;67961;43.460;3.762;2023-08-06T11:24:50;28.00;36.20
78647;DHT22;67961;43.460;3.762;2023-08-06T11:27:16;27.90;35.80
78647;DHT22;67961;43.460;3.762;2023-08-06T11:29:43;27.80;36.50
78647;DHT22;67961;43.460;3.762;2023-08-06T11:32:10;28.10;35.90
78647;DHT22;67961;43.460;3.762;2023-08-06T11:34:37;28.00;37.20
78647;DHT22;67961;43.460;3.762;2023-08-06T11:37:03;27.80;37.30
78647;DHT22;67961;43.460;3.762;2023-08-06T11:39:36;27.50;37.40
78647;DHT22;67961;43.460;3.762;2023-08-06T11:42:06;27.40;38.00
78647;DHT22;67961;43.460;3.762;2023-08-06T11:44:34;27.20;38.10
78647;DHT22;67961;43.460;3.762;2023-08-06T11:47:02;27.10;37.70
78647;DHT22;67961;43.460;3.762;2023-08-06T11:49:38;27.40;36.80
78647;DHT22;67961;43.460;3.762;2023-08-06T11:52:12;27.30;36.90
78647;DHT22;67961;43.460;3.762;2023-08-06T11:54:38;27.10;37.10
78647;DHT22;67961;43.460;3.762;2023-08-06T11:57:07;27.20;37.00
78647;DHT22;67961;43.460;3.762;2023-08-06T11:59:34;27.30;37.30
78647;DHT22;67961;43.460;3.762;2023-08-06T12:02:03;27.50;37.40
78647;DHT22;67961;43.460;3.762;2023-08-06T12:04:31;27.60;36.40
78647;DHT22;67961;43.460;3.762;2023-08-06T12:07:07;27.60;36.30
78647;DHT22;67961;43.460;3.762;2023-08-06T12:09:33;27.70;36.30
78647;DHT22;67961;43.460;3.762;2023-08-06T12:11:59;27.80;36.90
78647;DHT22;67961;43.460;3.762;2023-08-06T12:14:25;27.70;35.90
78647;DHT22;67961;43.460;3.762;2023-08-06T12:16:50;27.80;35.90
78647;DHT22;67961;43.460;3.762;2023-08-06T12:19:16;27.70;36.20
78647;DHT22;67961;43.460;3.762;2023-08-06T12:21:42;27.70;36.10
78647;DHT22;67961;43.460;3.762;2023-08-06T12:24:07;27.80;35.80
78647;DHT22;67961;43.460;3.762;2023-08-06T12:26:33;28.00;36.60
78647;DHT22;67961;43.460;3.762;2023-08-06T12:28:58;27.90;35.90
78647;DHT22;67961;43.460;3.762;2023-08-06T12:31:24;27.80;35.70
78647;DHT22;67961;43.460;3.762;2023-08-06T12:33:49;27.70;35.70
78647;DHT22;67961;43.460;3.762;2023-08-06T12:36:15;27.90;35.80
78647;DHT22;67961;43.460;3.762;2023-08-06T12:38:41;27.80;35.70
78647;DHT22;67961;43.460;3.762;2023-08-06T12:41:07;27.80;35.20
78647;DHT22;67961;43.460;3.762;2023-08-06T12:43:32;27.40;35.50
78647;DHT22;67961;43.460;3.762;2023-08-06T12:45:58;27.20;36.30
78647;DHT22;67961;43.460;3.762;2023-08-06T12:48:23;27.30;35.90
78647;DHT22;67961;43.460;3.762;2023-08-06T12:50:49;27.40;35.90
78647;DHT22;67961;43.460;3.762;2023-08-06T12:53:15;27.70;35.70
78647;DHT22;67961;43.460;3.762;2023-08-06T12:55:41;27.70;35.50
78647;DHT22;67961;43.460;3.762;2023-08-06T12:58:07;27.50;35.70
78647;DHT22;67961;43.460;3.762;2023-08-06T13:00:32;27.50;35.70
78647;DHT22;67961;43.460;3.762;2023-08-06T13:02:59;27.50;35.80
78647;DHT22;67961;43.460;3.762;2023-08-06T13:05:25;27.50;36.10
78647;DHT22;67961;43.460;3.762;2023-08-06T13:07:50;27.70;35.70
78647;DHT22;67961;43.460;3.762;2023-08-06T13:10:16;27.70;35.20
78647;DHT22;67961;43.460;3.762;2023-08-06T13:12:41;27.40;37.30
78647;DHT22;67961;43.460;3.762;2023-08-06T13:15:07;27.40;36.00
78647;DHT22;67961;43.460;3.762;2023-08-06T13:17:33;27.40;36.40
78647;DHT22;67961;43.460;3.762;2023-08-06T13:19:59;27.40;36.00
78647;DHT22;67961;43.460;3.762;2023-08-06T13:22:25;27.40;35.90
78647;DHT22;67961;43.460;3.762;2023-08-06T13:24:50;27.40;35.90
78647;DHT22;67961;43.460;3.762;2023-08-06T13:27:16;27.40;35.90
78647;DHT22;67961;43.460;3.762;2023-08-06T13:29:41;27.40;35.70
78647;DHT22;67961;43.460;3.762;2023-08-06T13:32:07;27.40;35.70
78647;DHT22;67961;43.460;3.762;2023-08-06T13:34:33;27.40;36.30
78647;DHT22;67961;43.460;3.762;2023-08-06T13:36:58;27.30;36.10
78647;DHT22;67961;43.460;3.762;2023-08-06T13:39:24;27.30;35.80
78647;DHT22;67961;43.460;3.762;2023-08-06T13:41:50;27.20;36.80
78647;DHT22;67961;43.460;3.762;2023-08-06T13:44:15;27.20;35.70
78647;DHT22;67961;43.460;3.762;2023-08-06T13:46:41;27.10;36.10
78647;DHT22;67961;43.460;3.762;2023-08-06T13:49:07;26.90;36.30
78647;DHT22;67961;43.460;3.762;2023-08-06T13:51:32;26.90;35.90
78647;DHT22;67961;43.460;3.762;2023-08-06T13:54:00;26.80;36.00
78647;DHT22;67961;43.460;3.762;2023-08-06T13:56:26;26.80;36.20
78647;DHT22;67961;43.460;3.762;2023-08-06T13:58:52;26.90;35.90
78647;DHT22;67961;43.460;3.762;2023-08-06T14:01:18;26.90;36.10
78647;DHT22;67961;43.460;3.762;2023-08-06T14:03:46;26.90;35.70
78647;DHT22;67961;43.460;3.762;2023-08-06T14:06:12;26.80;35.50
78647;DHT22;67961;43.460;3.762;2023-08-06T14:08:37;26.80;35.70
78647;DHT22;67961;43.460;3.762;2023-08-06T14:11:03;26.70;36.60
78647;DHT22;67961;43.460;3.762;2023-08-06T14:13:30;26.70;36.20
78647;DHT22;67961;43.460;3.762;2023-08-06T14:15:56;26.70;36.00
78647;DHT22;67961;43.460;3.762;2023-08-06T14:18:22;26.80;35.90
78647;DHT22;67961;43.460;3.762;2023-08-06T14:20:47;26.80;36.40
78647;DHT22;67961;43.460;3.762;2023-08-06T14:23:13;26.70;36.60
78647;DHT22;67961;43.460;3.762;2023-08-06T14:25:39;26.80;36.30
78647;DHT22;67961;43.460;3.762;2023-08-06T14:28:05;26.90;35.60
78647;DHT22;67961;43.460;3.762;2023-08-06T14:30:32;26.80;36.00
78647;DHT22;67961;43.460;3.762;2023-08-06T14:32:58;26.70;35.70
78647;DHT22;67961;43.460;3.762;2023-08-06T14:35:26;26.70;36.60
78647;DHT22;67961;43.460;3.762;2023-08-06T14:37:51;26.70;37.20
78647;DHT22;67961;43.460;3.762;2023-08-06T14:40:17;26.80;37.20
78647;DHT22;67961;43.460;3.762;2023-08-06T14:42:42;26.70;36.10
78647;DHT22;67961;43.460;3.762;2023-08-06T14:45:09;26.80;36.80
78647;DHT22;67961;43.460;3.762;2023-08-06T14:47:34;26.70;36.60
78647;DHT22;67961;43.460;3.762;2023-08-06T14:50:00;26.70;37.30
78647;DHT22;67961;43.460;3.762;2023-08-06T14:52:26;26.60;36.90
78647;DHT22;67961;43.460;3.762;2023-08-06T14:54:51;26.50;36.20
78647;DHT22;67961;43.460;3.762;2023-08-06T14:57:21;26.50;36.40
78647;DHT22;67961;43.460;3.762;2023-08-06T14:59:47;26.40;36.00
78647;DHT22;67961;43.460;3.762;2023-08-06T15:02:13;26.40;36.80
78647;DHT22;67961;43.460;3.762;2023-08-06T15:04:38;26.40;36.20
78647;DHT22;67961;43.460;3.762;2023-08-06T15:07:04;26.30;36.00
78647;DHT22;67961;43.460;3.762;2023-08-06T15:09:30;26.40;36.00
78647;DHT22;67961;43.460;3.762;2023-08-06T15:11:55;26.30;35.80
78647;DHT22;67961;43.460;3.762;2023-08-06T15:14:21;26.30;35.70
78647;DHT22;67961;43.460;3.762;2023-08-06T15:16:47;26.20;35.70
78647;DHT22;67961;43.460;3.762;2023-08-06T15:19:13;26.20;37.00
78647;DHT22;67961;43.460;3.762;2023-08-06T15:21:39;26.20;36.40
78647;DHT22;67961;43.460;3.762;2023-08-06T15:24:04;26.30;36.00
78647;DHT22;67961;43.460;3.762;2023-08-06T15:26:30;26.30;36.30
78647;DHT22;67961;43.460;3.762;2023-08-06T15:28:56;26.20;37.00
78647;DHT22;67961;43.460;3.762;2023-08-06T15:31:22;26.00;35.70
78647;DHT22;67961;43.460;3.762;2023-08-06T15:33:48;25.90;36.00